Chris Hadfield Airport
CYZR : now visible

Airfield :











YOU CAN JOIN US ON...

 
LOGIN :

Register | Disclaimer

   EN    FR    IT 

 









Legend :    VFR   Marginal VFR   IFR   Intensive IFR   Very Intensive IFR
Visi :
Ceiling :
>= 8 km
>= 3000ft
5 to 8 km
1000 to 3000 ft
1500m to 5 km
500 to 1000 ft
800 to 1500m
200 to 500 ft
< 800m
< 200 ft
Symbols :   Thunderstorms  Fog  Heavy snow  Heavy precipitations  Wind > 20 kt






- Airport Elevation : 594 ft
- IATA code : YZR


CYZR - Chris Hadfield

CURRENT METAR :
  • 081900Z AUTO 01009KT 9SM CLR 14/06 A2969 RMK SLP056 DENSITY ALT 900FT

EXPIRED METARs :
  • 081800Z AUTO 32008KT 9SM CLR 15/07 A2970 RMK SLP061 DENSITY ALT 900FT
  • 081700Z AUTO 33004KT 260V350 9SM CLR 14/08 A2971 RMK SLP064 DENSITY ALT 700FT
  • 081600Z AUTO 35005KT 310V020 9SM CLR 11/08 A2971 RMK SLP066

TAF AMD TAF CYZR
Valid from the 08 at 15:00 until the 09 at 02:00 UTC


081525Z 0815/0902 36006KT P6SM FEW015
FM081800 32008KT P6SM BKN040 RMK FCST BASED ON AUTO OBS. NXT FCST BY 082000Z



MET'MAP, your aeronautical weather chart ! - Copyright ORBIFLY December 2007 - Disclaimer

ORBIFLY MET'MAP TEAM :

Programming & Development : Alexandra Zaïnal
Concept & original design : Baudouin d'Aumeries
Assistance for programming : Marc-Olivier Méhu
Technical & hardware support : Manuel Goepfert

Contact : metmap@orbifly.com




SOURCES & CREDITS :

   NOAA       Earth
Advisory